Terminal Aerodrome Forecast
Issued by NWS

Home | Current Version | Previous Version | Text Only | Print | Product List | Glossary On
Versions: 1 2 3 4 5 6 7 8 9 10 11 12 13 14 15 16
000
FTUS44 KLZK 060500
TAFADF
TAF
KADF 060523Z 0606/0706 13004KT P6SM BKN100
     FM061000 15008KT P6SM VCTS SCT060CB BKN100
     FM061500 16010G18KT P6SM SCT050 BKN080
     FM070100 14006KT P6SM BKN050=

USA.gov is the U.S. government's official web portal to all federal, state and local government web resources and services.